createdAt,value
2023-05-01T00:00:40.171Z,93540.34
2023-05-01T00:03:08.350Z,93532.63
2023-05-01T00:05:36.339Z,93532.84
2023-05-01T00:08:04.513Z,93537.97
2023-05-01T00:10:35.790Z,93539.09
2023-05-01T00:13:04.270Z,93541.09
2023-05-01T00:15:33.052Z,93540.38
2023-05-01T00:18:01.226Z,93542.59
2023-05-01T00:20:29.995Z,93546.19
2023-05-01T00:22:58.226Z,93538.91
2023-05-01T00:25:26.178Z,93544.22
2023-05-01T00:27:54.317Z,93544.59
2023-05-01T00:30:22.276Z,93559.16
2023-05-01T00:32:50.331Z,93563.19
2023-05-01T00:35:18.420Z,93560.44
2023-05-01T00:37:47.191Z,93553.75
2023-05-01T00:40:15.121Z,93558.81
2023-05-01T00:42:43.217Z,93557.44
2023-05-01T00:45:11.622Z,93560.00
2023-05-01T00:47:39.707Z,93558.84
2023-05-01T00:50:08.708Z,93560.78
2023-05-01T00:52:36.477Z,93567.25
2023-05-01T00:55:05.553Z,93566.09
2023-05-01T00:57:33.897Z,93572.91
2023-05-01T01:00:01.969Z,93573.97
2023-05-01T01:02:30.299Z,93572.22
2023-05-01T01:04:58.755Z,93578.69
2023-05-01T01:07:51.972Z,93576.59
2023-05-01T01:10:44.018Z,93573.13
2023-05-01T01:13:38.550Z,93544.19
2023-05-01T01:16:16.332Z,93561.41
2023-05-01T01:18:52.666Z,93572.31
2023-05-01T01:21:27.683Z,93584.25
2023-05-01T01:24:22.459Z,93582.59
2023-05-01T01:27:18.348Z,93590.69
2023-05-01T01:29:59.625Z,93591.72
2023-05-01T01:32:36.564Z,93592.06
2023-05-01T01:35:09.344Z,93588.13
2023-05-01T01:37:48.660Z,93592.38
2023-05-01T01:40:24.664Z,93590.31
2023-05-01T01:43:04.726Z,93594.81
2023-05-01T01:45:42.567Z,93591.25
2023-05-01T01:48:15.173Z,93587.44
2023-05-01T01:50:44.618Z,93574.50
2023-05-01T01:53:18.057Z,93576.69
2023-05-01T01:55:49.269Z,93575.31
2023-05-01T01:58:21.586Z,93580.03
2023-05-01T02:00:50.575Z,93581.03
2023-05-01T02:03:19.680Z,93586.28
2023-05-01T02:05:49.996Z,93590.31
2023-05-01T02:08:20.125Z,93581.00
2023-05-01T02:10:49.017Z,93582.00
2023-05-01T02:13:17.942Z,93582.25
2023-05-01T02:15:48.018Z,93575.94
2023-05-01T02:18:17.081Z,93587.47
2023-05-01T02:20:45.616Z,93584.00
2023-05-01T02:23:14.204Z,93573.41
2023-05-01T02:25:44.480Z,93582.75
2023-05-01T02:28:22.736Z,93571.91
2023-05-01T02:30:50.855Z,93570.75
2023-05-01T02:33:19.125Z,93557.06
2023-05-01T02:35:48.106Z,93566.94
2023-05-01T02:38:18.569Z,93574.94
2023-05-01T02:40:54.172Z,93564.56
2023-05-01T02:43:23.171Z,93575.25
2023-05-01T02:45:53.000Z,93573.03
2023-05-01T02:48:27.059Z,93571.59
2023-05-01T02:50:57.390Z,93579.56
2023-05-01T02:55:05.777Z,93582.56
2023-05-01T02:57:34.718Z,93581.03
2023-05-01T03:00:02.561Z,93579.78
2023-05-01T03:02:30.553Z,93570.44
2023-05-01T03:04:58.703Z,93582.31
2023-05-01T03:07:27.236Z,93583.00
2023-05-01T03:09:55.500Z,93590.78
2023-05-01T03:12:23.879Z,93584.88
2023-05-01T03:14:53.031Z,93601.78
2023-05-01T03:17:20.950Z,93601.06
2023-05-01T03:19:49.890Z,93597.41
2023-05-01T03:22:17.829Z,93596.13
2023-05-01T03:24:47.619Z,93604.22
2023-05-01T03:27:15.814Z,93605.94
2023-05-01T03:29:46.403Z,93610.50
2023-05-01T03:32:15.295Z,93608.59
2023-05-01T03:34:43.639Z,93612.00
2023-05-01T03:37:12.149Z,93611.66
2023-05-01T03:39:40.040Z,93608.59
2023-05-01T03:42:20.336Z,93610.56
2023-05-01T03:44:48.414Z,93605.25
2023-05-01T03:47:17.771Z,93611.56
2023-05-01T03:49:45.913Z,93609.72
2023-05-01T03:52:14.761Z,93600.63
2023-05-01T03:54:44.843Z,93618.94
2023-05-01T03:57:38.873Z,93623.91
2023-05-01T04:00:08.710Z,93623.22
2023-05-01T04:02:47.770Z,93635.22
2023-05-01T04:05:21.757Z,93638.66
2023-05-01T04:07:54.638Z,93638.34
2023-05-01T04:10:23.227Z,93646.50
2023-05-01T04:12:57.016Z,93633.50
2023-05-01T04:15:25.160Z,93641.38
2023-05-01T04:17:56.013Z,93638.97
2023-05-01T04:20:24.924Z,93643.34
2023-05-01T04:22:52.998Z,93630.22
2023-05-01T04:25:21.052Z,93628.41
2023-05-01T04:27:51.878Z,93635.56
2023-05-01T04:30:19.899Z,93630.13
2023-05-01T04:32:48.000Z,93633.47
2023-05-01T04:35:16.881Z,93634.06
2023-05-01T04:37:46.082Z,93632.91
2023-05-01T04:40:14.190Z,93639.94
2023-05-01T04:42:42.779Z,93639.72
2023-05-01T04:45:14.065Z,93638.22
2023-05-01T04:47:42.209Z,93637.75
2023-05-01T04:50:11.012Z,93639.81
2023-05-01T04:52:39.128Z,93642.38
2023-05-01T04:55:07.988Z,93643.47
2023-05-01T04:57:39.210Z,93649.22
2023-05-01T05:00:09.450Z,93634.22
2023-05-01T05:02:46.933Z,93644.31
2023-05-01T05:05:16.457Z,93645.13
2023-05-01T05:07:44.373Z,93636.66
2023-05-01T05:10:36.062Z,93644.66
2023-05-01T05:13:28.590Z,93646.72
2023-05-01T05:16:07.907Z,93653.22
2023-05-01T05:18:36.124Z,93652.75
2023-05-01T05:21:05.510Z,93652.16
2023-05-01T05:23:33.774Z,93640.25
2023-05-01T05:26:02.303Z,93656.84
2023-05-01T05:28:31.284Z,93657.78
2023-05-01T05:30:59.390Z,93660.84
2023-05-01T05:33:29.455Z,93662.34
2023-05-01T05:35:59.746Z,93667.44
2023-05-01T05:38:33.144Z,93666.38
2023-05-01T05:41:02.149Z,93672.50
2023-05-01T05:43:32.625Z,93685.97
2023-05-01T05:46:01.386Z,93684.78
2023-05-01T05:48:31.664Z,93683.78
2023-05-01T05:50:59.917Z,93682.69
2023-05-01T05:53:27.913Z,93677.63
2023-05-01T05:55:56.037Z,93678.50
2023-05-01T05:58:24.907Z,93680.38
2023-05-01T06:00:58.935Z,93672.34
2023-05-01T06:03:27.785Z,93670.88
2023-05-01T06:05:59.975Z,93668.31
2023-05-01T06:08:28.093Z,93667.56
2023-05-01T06:10:56.889Z,93663.94
2023-05-01T06:13:25.516Z,93662.31
2023-05-01T06:15:54.177Z,93667.53
2023-05-01T06:18:22.388Z,93652.56
2023-05-01T06:20:52.261Z,93650.13
2023-05-01T06:23:20.174Z,93660.50
2023-05-01T06:26:01.089Z,93654.44
2023-05-01T06:28:29.012Z,93651.50
2023-05-01T06:30:57.326Z,93642.28
2023-05-01T06:33:27.523Z,93635.78
2023-05-01T06:36:08.240Z,93644.13
2023-05-01T06:38:36.935Z,93644.84
2023-05-01T06:41:05.673Z,93649.66
2023-05-01T06:43:33.826Z,93636.53
2023-05-01T06:46:01.825Z,93636.09
2023-05-01T06:48:29.667Z,93631.03
2023-05-01T06:50:57.850Z,93630.00
2023-05-01T06:53:25.833Z,93633.47
2023-05-01T06:55:54.162Z,93633.78
2023-05-01T06:58:24.390Z,93633.34
2023-05-01T07:00:55.349Z,93627.88
2023-05-01T07:03:23.839Z,93627.56
2023-05-01T07:05:51.778Z,93629.47
2023-05-01T07:08:20.220Z,93629.09
2023-05-01T07:10:50.033Z,93632.00
2023-05-01T07:13:18.432Z,93624.22
2023-05-01T07:15:46.393Z,93616.84
2023-05-01T07:18:14.313Z,93627.50
2023-05-01T07:20:42.590Z,93625.13
2023-05-01T07:23:10.842Z,93623.56
2023-05-01T07:25:38.663Z,93622.41
2023-05-01T07:28:08.344Z,93628.66
2023-05-01T07:30:37.896Z,93620.78
2023-05-01T07:33:06.232Z,93623.97
2023-05-01T07:35:35.072Z,93626.19
2023-05-01T07:38:03.464Z,93628.03
2023-05-01T07:40:35.286Z,93635.28
2023-05-01T07:43:04.600Z,93638.00
2023-05-01T07:45:32.819Z,93641.28
2023-05-01T07:48:00.997Z,93634.91
2023-05-01T07:50:29.166Z,93631.78
2023-05-01T07:52:57.643Z,93637.53
2023-05-01T07:55:26.332Z,93632.63
2023-05-01T07:57:54.744Z,93644.22
2023-05-01T08:00:23.387Z,93646.97
2023-05-01T08:02:52.020Z,93646.75
2023-05-01T08:05:20.133Z,93642.56
2023-05-01T08:07:48.435Z,93648.25
2023-05-01T08:10:16.586Z,93649.81
2023-05-01T08:12:44.599Z,93648.78
2023-05-01T08:15:12.512Z,93650.84
2023-05-01T08:17:40.847Z,93650.53
2023-05-01T08:20:10.222Z,93656.94
2023-05-01T08:22:38.666Z,93658.09
2023-05-01T08:25:08.004Z,93653.66
2023-05-01T08:27:36.323Z,93655.13
2023-05-01T08:30:05.143Z,93649.69
2023-05-01T08:32:33.893Z,93649.84
2023-05-01T08:35:02.156Z,93650.50
2023-05-01T08:37:31.145Z,93649.28
2023-05-01T08:39:59.678Z,93640.38
2023-05-01T08:42:31.633Z,93639.66
2023-05-01T08:45:01.990Z,93640.78
2023-05-01T08:47:31.608Z,93629.59
2023-05-01T08:50:00.685Z,93629.06
2023-05-01T08:52:31.070Z,93626.75
2023-05-01T08:55:01.929Z,93620.69
2023-05-01T08:57:32.487Z,93609.31
2023-05-01T09:00:02.182Z,93632.31
2023-05-01T09:02:35.459Z,93616.53
2023-05-01T09:05:06.643Z,93613.84
2023-05-01T09:07:35.834Z,93615.44
2023-05-01T09:10:05.175Z,93617.09
2023-05-01T09:12:37.993Z,93611.75
2023-05-01T09:15:08.309Z,93618.38
2023-05-01T09:17:37.295Z,93612.09
2023-05-01T09:20:06.825Z,93613.28
2023-05-01T09:22:35.880Z,93609.63
2023-05-01T09:25:04.741Z,93622.44
2023-05-01T09:27:35.699Z,93627.03
2023-05-01T09:30:06.431Z,93628.00
2023-05-01T09:32:34.950Z,93624.69
2023-05-01T09:35:14.928Z,93627.63
2023-05-01T09:37:43.212Z,93623.13
2023-05-01T09:40:13.293Z,93622.63
2023-05-01T09:42:52.495Z,93621.97
2023-05-01T09:45:20.967Z,93629.03
2023-05-01T09:47:49.461Z,93609.03
2023-05-01T09:50:34.794Z,93615.47
2023-05-01T09:53:05.317Z,93611.25
2023-05-01T09:55:34.541Z,93611.56
2023-05-01T09:58:02.897Z,93616.22
2023-05-01T10:00:31.332Z,93619.44
2023-05-01T10:03:15.219Z,93610.88
2023-05-01T10:05:44.995Z,93617.34
2023-05-01T10:08:15.437Z,93614.03
2023-05-01T10:10:44.290Z,93612.28
2023-05-01T10:13:19.394Z,93601.50
2023-05-01T10:15:47.633Z,93617.66
2023-05-01T10:18:17.353Z,93602.75
2023-05-01T10:20:45.889Z,93604.13
2023-05-01T10:23:14.802Z,93608.00
2023-05-01T10:25:43.504Z,93614.06
2023-05-01T10:28:13.346Z,93607.94
2023-05-01T10:30:42.864Z,93603.34
2023-05-01T10:33:14.525Z,93608.09
2023-05-01T10:35:49.257Z,93613.25
2023-05-01T10:38:30.094Z,93604.28
2023-05-01T10:40:58.779Z,93607.97
2023-05-01T10:43:33.684Z,93605.38
2023-05-01T10:46:08.233Z,93606.34
2023-05-01T10:48:45.442Z,93594.50
2023-05-01T10:51:16.157Z,93594.38
2023-05-01T10:53:46.792Z,93594.78
2023-05-01T10:56:38.637Z,93593.31
2023-05-01T10:59:07.792Z,93600.25
2023-05-01T11:01:45.513Z,93619.59
2023-05-01T11:04:22.823Z,93620.56
2023-05-01T11:07:04.814Z,93622.00
2023-05-01T11:09:39.705Z,93623.53
2023-05-01T11:12:09.755Z,93613.63
2023-05-01T11:15:04.222Z,93625.38
2023-05-01T11:17:44.102Z,93626.19
2023-05-01T11:20:38.437Z,93628.19
2023-05-01T11:23:07.362Z,93641.13
2023-05-01T11:25:35.845Z,93644.06
2023-05-01T11:28:07.128Z,93643.50
2023-05-01T11:30:40.013Z,93637.28
2023-05-01T11:33:10.729Z,93650.09
2023-05-01T11:35:39.850Z,93652.06
2023-05-01T11:38:16.812Z,93656.66
2023-05-01T11:40:45.680Z,93653.66
2023-05-01T11:43:14.240Z,93647.25
2023-05-01T11:45:42.769Z,93652.66
2023-05-01T11:48:17.040Z,93653.66
2023-05-01T11:50:46.102Z,93646.69
2023-05-01T11:53:19.095Z,93647.75
2023-05-01T11:55:47.397Z,93651.25
2023-05-01T11:58:15.810Z,93643.44
2023-05-01T12:00:46.911Z,93652.34
2023-05-01T12:03:16.028Z,93643.06
2023-05-01T12:05:45.613Z,93652.66
2023-05-01T12:08:19.415Z,93657.06
2023-05-01T12:10:56.504Z,93663.34
2023-05-01T12:13:26.351Z,93663.56
2023-05-01T12:15:56.602Z,93661.22
2023-05-01T12:18:25.314Z,93652.75
2023-05-01T12:20:55.948Z,93649.38
2023-05-01T12:23:33.892Z,93652.53
2023-05-01T12:26:05.517Z,93648.56
2023-05-01T12:28:34.115Z,93642.75
2023-05-01T12:31:05.438Z,93646.56
2023-05-01T12:33:34.215Z,93646.66
2023-05-01T12:36:12.191Z,93643.66
2023-05-01T12:38:41.048Z,93644.94
2023-05-01T12:41:12.098Z,93639.91
2023-05-01T12:43:41.896Z,93659.44
2023-05-01T12:46:15.160Z,93664.25
2023-05-01T12:48:43.893Z,93658.94
2023-05-01T12:51:20.233Z,93666.06
2023-05-01T12:53:49.635Z,93650.53
2023-05-01T12:56:25.923Z,93647.69
2023-05-01T12:58:55.666Z,93643.09
2023-05-01T13:01:28.682Z,93644.59
2023-05-01T13:03:58.347Z,93652.34
2023-05-01T13:06:35.998Z,93647.59
2023-05-01T13:09:10.950Z,93625.13
2023-05-01T13:11:39.686Z,93655.06
2023-05-01T13:14:09.223Z,93658.63
2023-05-01T13:16:47.033Z,93663.44
2023-05-01T13:19:27.070Z,93671.72
2023-05-01T13:21:58.525Z,93678.13
2023-05-01T13:24:37.216Z,93661.53
2023-05-01T13:27:06.708Z,93664.53
2023-05-01T13:29:35.813Z,93658.38
2023-05-01T13:32:06.225Z,93660.44
2023-05-01T13:34:35.879Z,93673.59
2023-05-01T13:37:04.361Z,93669.19
2023-05-01T13:39:32.801Z,93675.00
2023-05-01T13:42:04.824Z,93674.44
2023-05-01T13:44:33.319Z,93678.97
2023-05-01T13:47:03.894Z,93677.69
2023-05-01T13:49:32.416Z,93679.72
2023-05-01T13:52:00.783Z,93679.63
2023-05-01T13:54:29.296Z,93679.53
2023-05-01T13:56:58.300Z,93672.03
2023-05-01T13:59:32.881Z,93680.56
2023-05-01T14:02:01.520Z,93674.50
2023-05-01T14:04:29.961Z,93676.91
2023-05-01T14:09:28.716Z,93670.88
2023-05-01T14:11:57.248Z,93676.28
2023-05-01T14:14:25.581Z,93678.78
2023-05-01T14:16:54.557Z,93668.88
2023-05-01T14:19:23.039Z,93669.66
2023-05-01T14:21:51.452Z,93679.38
2023-05-01T14:24:20.058Z,93680.66
2023-05-01T14:26:49.827Z,93675.56
2023-05-01T14:29:26.101Z,93681.47
2023-05-01T14:31:56.295Z,93676.84
2023-05-01T14:34:26.867Z,93672.47
2023-05-01T14:36:58.996Z,93670.53
2023-05-01T14:39:28.067Z,93664.88
2023-05-01T14:41:58.661Z,93663.66
2023-05-01T14:44:29.988Z,93670.97
2023-05-01T14:46:59.148Z,93666.38
2023-05-01T14:49:27.762Z,93673.06
2023-05-01T14:51:56.466Z,93673.00
2023-05-01T14:54:25.097Z,93679.88
2023-05-01T14:56:53.381Z,93641.41
2023-05-01T14:59:23.202Z,93672.97
2023-05-01T15:01:51.690Z,93684.38
2023-05-01T15:04:20.183Z,93687.50
2023-05-01T15:06:48.759Z,93679.28
2023-05-01T15:09:17.239Z,93674.78
2023-05-01T15:11:45.658Z,93674.72
2023-05-01T15:14:14.013Z,93696.63
2023-05-01T15:16:43.043Z,93684.53
2023-05-01T15:19:11.603Z,93683.97
2023-05-01T15:21:39.982Z,93688.47
2023-05-01T15:24:08.185Z,93674.78
2023-05-01T15:26:36.677Z,93677.03
2023-05-01T15:29:05.108Z,93685.31
2023-05-01T15:31:33.466Z,93688.63
2023-05-01T15:34:02.140Z,93683.34
2023-05-01T15:36:31.006Z,93685.38
2023-05-01T15:38:59.313Z,93695.94
2023-05-01T15:41:27.585Z,93686.66
2023-05-01T15:43:56.534Z,93697.78
2023-05-01T15:46:27.110Z,93695.28
2023-05-01T15:48:55.895Z,93697.88
2023-05-01T15:51:24.067Z,93700.41
2023-05-01T15:53:52.583Z,93694.94
2023-05-01T15:56:21.991Z,93704.38
2023-05-01T15:58:50.305Z,93701.91
2023-05-01T16:01:18.695Z,93659.72
2023-05-01T16:03:48.454Z,93688.19
2023-05-01T16:06:17.387Z,93687.31
2023-05-01T16:08:46.211Z,93691.81
2023-05-01T16:11:14.604Z,93692.69
2023-05-01T16:13:43.711Z,93690.38
2023-05-01T16:16:14.971Z,93690.13
2023-05-01T16:18:43.449Z,93687.56
2023-05-01T16:21:13.235Z,93698.09
2023-05-01T16:23:42.162Z,93699.75
2023-05-01T16:26:11.090Z,93689.81
2023-05-01T16:28:39.804Z,93702.19
2023-05-01T16:31:23.463Z,93705.06
2023-05-01T16:33:55.058Z,93699.94
2023-05-01T16:36:23.426Z,93704.28
2023-05-01T16:38:53.090Z,93705.31
2023-05-01T16:41:21.740Z,93709.16
2023-05-01T16:43:52.392Z,93712.44
2023-05-01T16:46:21.086Z,93707.59
2023-05-01T16:48:49.208Z,93708.47
2023-05-01T16:51:17.803Z,93709.34
2023-05-01T16:53:46.234Z,93715.53
2023-05-01T16:56:14.849Z,93718.22
2023-05-01T16:58:44.316Z,93715.69
2023-05-01T17:01:13.792Z,93718.47
2023-05-01T17:03:42.254Z,93716.31
2023-05-01T17:06:11.036Z,93721.91
2023-05-01T17:08:39.654Z,93722.78
2023-05-01T17:11:08.151Z,93717.47
2023-05-01T17:13:36.930Z,93727.91
2023-05-01T17:16:05.493Z,93732.84
2023-05-01T17:18:34.020Z,93743.63
2023-05-01T17:21:02.456Z,93736.41
2023-05-01T17:23:30.760Z,93741.53
2023-05-01T17:25:59.075Z,93743.72
2023-05-01T17:28:27.558Z,93756.09
2023-05-01T17:30:56.694Z,93751.84
2023-05-01T17:33:25.221Z,93762.06
2023-05-01T17:35:55.776Z,93756.69
2023-05-01T17:38:24.255Z,93759.91
2023-05-01T17:40:52.330Z,93773.38
2023-05-01T17:43:21.596Z,93774.44
2023-05-01T17:45:50.539Z,93775.81
2023-05-01T17:48:19.907Z,93765.09
2023-05-01T17:50:49.153Z,93783.31
2023-05-01T17:53:17.069Z,93779.56
2023-05-01T17:55:45.478Z,93786.50
2023-05-01T17:58:14.128Z,93781.44
2023-05-01T18:00:42.909Z,93773.66
2023-05-01T18:03:11.179Z,93792.16
2023-05-01T18:05:40.131Z,93791.13
2023-05-01T18:08:08.532Z,93791.38
2023-05-01T18:10:37.189Z,93797.56
2023-05-01T18:13:05.605Z,93801.03
2023-05-01T18:15:33.983Z,93802.91
2023-05-01T18:18:02.813Z,93800.50
2023-05-01T18:20:31.547Z,93809.91
2023-05-01T18:22:59.945Z,93795.91
2023-05-01T18:25:28.629Z,93812.84
2023-05-01T18:27:57.850Z,93815.47
2023-05-01T18:30:26.250Z,93821.13
2023-05-01T18:32:54.703Z,93814.94
2023-05-01T18:35:23.670Z,93808.75
2023-05-01T18:37:52.439Z,93819.47
2023-05-01T18:40:20.867Z,93817.06
2023-05-01T18:42:49.522Z,93818.38
2023-05-01T18:45:18.011Z,93826.66
2023-05-01T18:47:46.911Z,93830.91
2023-05-01T18:50:17.316Z,93822.59
2023-05-01T18:52:45.861Z,93830.88
2023-05-01T18:55:14.554Z,93837.53
2023-05-01T18:57:44.127Z,93842.34
2023-05-01T19:00:14.797Z,93838.06
2023-05-01T19:02:43.821Z,93821.09
2023-05-01T19:05:14.351Z,93839.00
2023-05-01T19:07:42.891Z,93840.09
2023-05-01T19:10:11.460Z,93851.31
2023-05-01T19:12:41.350Z,93855.25
2023-05-01T19:15:10.590Z,93854.38
2023-05-01T19:17:39.861Z,93853.81
2023-05-01T19:20:09.062Z,93862.03
2023-05-01T19:22:37.526Z,93862.53
2023-05-01T19:25:06.367Z,93868.13
2023-05-01T19:27:34.738Z,93863.78
2023-05-01T19:30:03.326Z,93870.94
2023-05-01T19:32:31.967Z,93867.16
2023-05-01T19:35:00.253Z,93871.91
2023-05-01T19:37:28.702Z,93865.66
2023-05-01T19:39:57.410Z,93868.81
2023-05-01T19:42:26.019Z,93870.34
2023-05-01T19:44:54.398Z,93870.28
2023-05-01T19:47:22.998Z,93872.78
2023-05-01T19:49:51.962Z,93882.94
2023-05-01T19:52:20.189Z,93874.66
2023-05-01T19:54:48.733Z,93869.75
2023-05-01T19:57:17.830Z,93875.31
2023-05-01T19:59:45.931Z,93876.56
2023-05-01T20:02:14.209Z,93878.41
2023-05-01T20:04:42.909Z,93879.16
2023-05-01T20:07:11.548Z,93874.25
2023-05-01T20:09:39.907Z,93870.22
2023-05-01T20:12:08.391Z,93880.84
2023-05-01T20:14:36.759Z,93880.78
2023-05-01T20:17:06.558Z,93860.34
2023-05-01T20:19:36.434Z,93869.91
2023-05-01T20:22:06.401Z,93858.91
2023-05-01T20:24:34.783Z,93877.91
2023-05-01T20:27:06.036Z,93874.06
2023-05-01T20:29:34.469Z,93877.78
2023-05-01T20:32:02.963Z,93878.63
2023-05-01T20:34:31.992Z,93883.94
2023-05-01T20:37:00.283Z,93881.84
2023-05-01T20:39:28.424Z,93878.72
2023-05-01T20:41:56.357Z,93878.38
2023-05-01T20:44:24.698Z,93882.84
2023-05-01T20:46:53.402Z,93880.28
2023-05-01T20:49:22.517Z,93882.72
2023-05-01T20:51:50.375Z,93876.09
2023-05-01T20:54:18.214Z,93884.31
2023-05-01T20:56:46.122Z,93874.63
2023-05-01T20:59:14.142Z,93881.66
2023-05-01T21:01:42.271Z,93885.78
2023-05-01T21:04:10.725Z,93864.63
2023-05-01T21:06:39.032Z,93873.19
2023-05-01T21:09:08.690Z,93879.41
2023-05-01T21:11:40.698Z,93882.94
2023-05-01T21:14:09.154Z,93882.63
2023-05-01T21:16:38.560Z,93889.00
2023-05-01T21:19:07.201Z,93890.28
2023-05-01T21:21:37.103Z,93875.97
2023-05-01T21:24:07.572Z,93884.75
2023-05-01T21:26:35.642Z,93894.81
2023-05-01T21:29:03.541Z,93882.66
2023-05-01T21:31:36.974Z,93884.88
2023-05-01T21:34:05.270Z,93894.63
2023-05-01T21:36:33.374Z,93887.63
2023-05-01T21:39:01.612Z,93888.13
2023-05-01T21:41:29.462Z,93884.47
2023-05-01T21:43:57.514Z,93889.31
2023-05-01T21:46:25.526Z,93894.75
2023-05-01T21:48:53.556Z,93896.84
2023-05-01T21:51:28.837Z,93898.34
2023-05-01T21:53:56.936Z,93896.97
2023-05-01T21:56:26.645Z,93905.13
2023-05-01T21:59:02.697Z,93903.13
2023-05-01T22:01:31.969Z,93893.84
2023-05-01T22:04:01.659Z,93901.97
2023-05-01T22:06:29.960Z,93890.97
2023-05-01T22:08:58.119Z,93904.13
2023-05-01T22:11:27.687Z,93897.63
2023-05-01T22:13:55.564Z,93918.44
2023-05-01T22:16:25.834Z,93911.59
2023-05-01T22:18:54.103Z,93911.25
2023-05-01T22:21:22.016Z,93915.50
2023-05-01T22:23:50.223Z,93916.78
2023-05-01T22:26:18.110Z,93919.81
2023-05-01T22:28:46.084Z,93914.69
2023-05-01T22:31:16.680Z,93916.00
2023-05-01T22:33:48.139Z,93917.28
2023-05-01T22:36:15.841Z,93922.03
2023-05-01T22:38:43.566Z,93918.47
2023-05-01T22:41:11.922Z,93922.94
2023-05-01T22:43:39.880Z,93920.19
2023-05-01T22:46:07.670Z,93916.59
2023-05-01T22:48:35.633Z,93918.69
2023-05-01T22:51:06.898Z,93918.94
2023-05-01T22:53:34.778Z,93922.03
2023-05-01T22:56:02.833Z,93917.88
2023-05-01T22:58:30.776Z,93916.16
2023-05-01T23:00:58.553Z,93914.06
2023-05-01T23:03:26.679Z,93906.22
2023-05-01T23:05:54.742Z,93918.13
2023-05-01T23:08:22.759Z,93919.28
2023-05-01T23:10:50.538Z,93910.47
2023-05-01T23:13:22.842Z,93914.16
2023-05-01T23:15:52.526Z,93898.81
2023-05-01T23:18:25.857Z,93912.22
2023-05-01T23:20:53.946Z,93910.13
2023-05-01T23:23:22.635Z,93907.13
2023-05-01T23:25:50.867Z,93904.34
2023-05-01T23:28:24.122Z,93905.72
2023-05-01T23:31:03.472Z,93895.69
2023-05-01T23:33:38.000Z,93895.91
2023-05-01T23:36:13.213Z,93896.25
2023-05-01T23:38:41.330Z,93898.56
2023-05-01T23:41:09.821Z,93898.91
2023-05-01T23:43:39.058Z,93902.59
2023-05-01T23:46:07.821Z,93899.81
2023-05-01T23:48:36.539Z,93902.56
2023-05-01T23:51:04.799Z,93905.22
2023-05-01T23:53:32.797Z,93890.19
2023-05-01T23:56:00.748Z,93895.38
2023-05-01T23:58:28.638Z,93901.75
